sensor_id;sensor_type;location;lat;lon;timestamp;P1;durP1;ratioP1;P2;durP2;ratioP2
16031;SDS011;8120;48.308;8.914;2023-05-07T00:00:44;4.80;;;3.50;;
16031;SDS011;8120;48.308;8.914;2023-05-07T00:03:13;4.17;;;3.30;;
16031;SDS011;8120;48.308;8.914;2023-05-07T00:05:41;7.10;;;3.60;;
16031;SDS011;8120;48.308;8.914;2023-05-07T00:08:09;5.03;;;3.27;;
16031;SDS011;8120;48.308;8.914;2023-05-07T00:10:37;6.17;;;3.93;;
16031;SDS011;8120;48.308;8.914;2023-05-07T00:13:05;4.20;;;3.20;;
16031;SDS011;8120;48.308;8.914;2023-05-07T00:15:33;4.53;;;3.33;;
16031;SDS011;8120;48.308;8.914;2023-05-07T00:18:01;5.97;;;3.20;;
16031;SDS011;8120;48.308;8.914;2023-05-07T00:20:30;5.37;;;3.23;;
16031;SDS011;8120;48.308;8.914;2023-05-07T00:23:01;4.27;;;2.87;;
16031;SDS011;8120;48.308;8.914;2023-05-07T00:25:29;3.97;;;2.70;;
16031;SDS011;8120;48.308;8.914;2023-05-07T00:27:56;5.77;;;3.00;;
16031;SDS011;8120;48.308;8.914;2023-05-07T00:30:28;5.77;;;3.03;;
16031;SDS011;8120;48.308;8.914;2023-05-07T00:32:56;6.40;;;3.30;;
16031;SDS011;8120;48.308;8.914;2023-05-07T00:35:24;6.17;;;2.90;;
16031;SDS011;8120;48.308;8.914;2023-05-07T00:37:54;5.37;;;3.60;;
16031;SDS011;8120;48.308;8.914;2023-05-07T00:40:22;4.97;;;3.60;;
16031;SDS011;8120;48.308;8.914;2023-05-07T00:42:49;4.70;;;3.30;;
16031;SDS011;8120;48.308;8.914;2023-05-07T00:45:19;4.00;;;2.97;;
16031;SDS011;8120;48.308;8.914;2023-05-07T00:47:46;4.07;;;3.10;;
16031;SDS011;8120;48.308;8.914;2023-05-07T00:50:14;4.47;;;3.10;;
16031;SDS011;8120;48.308;8.914;2023-05-07T00:52:43;4.67;;;3.17;;
16031;SDS011;8120;48.308;8.914;2023-05-07T00:55:12;4.97;;;3.47;;
16031;SDS011;8120;48.308;8.914;2023-05-07T00:57:41;4.47;;;3.00;;
16031;SDS011;8120;48.308;8.914;2023-05-07T01:00:09;4.77;;;3.33;;
16031;SDS011;8120;48.308;8.914;2023-05-07T01:02:39;4.37;;;3.23;;
16031;SDS011;8120;48.308;8.914;2023-05-07T01:05:09;4.30;;;3.67;;
16031;SDS011;8120;48.308;8.914;2023-05-07T01:07:40;5.90;;;3.43;;
16031;SDS011;8120;48.308;8.914;2023-05-07T01:10:09;4.07;;;3.53;;
16031;SDS011;8120;48.308;8.914;2023-05-07T01:12:40;5.87;;;4.00;;
16031;SDS011;8120;48.308;8.914;2023-05-07T01:15:09;5.00;;;3.70;;
16031;SDS011;8120;48.308;8.914;2023-05-07T01:17:39;4.23;;;3.20;;
16031;SDS011;8120;48.308;8.914;2023-05-07T01:20:09;4.57;;;2.77;;
16031;SDS011;8120;48.308;8.914;2023-05-07T01:22:39;5.97;;;3.20;;
16031;SDS011;8120;48.308;8.914;2023-05-07T01:25:08;3.23;;;2.63;;
16031;SDS011;8120;48.308;8.914;2023-05-07T01:27:36;4.57;;;3.27;;
16031;SDS011;8120;48.308;8.914;2023-05-07T01:30:04;4.80;;;3.23;;
16031;SDS011;8120;48.308;8.914;2023-05-07T01:32:35;4.03;;;3.03;;
16031;SDS011;8120;48.308;8.914;2023-05-07T01:35:07;6.60;;;3.30;;
16031;SDS011;8120;48.308;8.914;2023-05-07T01:37:39;6.67;;;3.87;;
16031;SDS011;8120;48.308;8.914;2023-05-07T01:40:08;5.50;;;3.43;;
16031;SDS011;8120;48.308;8.914;2023-05-07T01:42:37;5.60;;;3.57;;
16031;SDS011;8120;48.308;8.914;2023-05-07T01:45:05;5.77;;;3.40;;
16031;SDS011;8120;48.308;8.914;2023-05-07T01:47:34;3.83;;;3.10;;
16031;SDS011;8120;48.308;8.914;2023-05-07T01:50:03;4.20;;;3.20;;
16031;SDS011;8120;48.308;8.914;2023-05-07T01:52:35;4.00;;;2.97;;
16031;SDS011;8120;48.308;8.914;2023-05-07T01:55:06;5.90;;;3.00;;
16031;SDS011;8120;48.308;8.914;2023-05-07T01:57:35;5.90;;;3.23;;
16031;SDS011;8120;48.308;8.914;2023-05-07T02:00:03;3.43;;;2.70;;
16031;SDS011;8120;48.308;8.914;2023-05-07T02:02:32;6.03;;;3.00;;
16031;SDS011;8120;48.308;8.914;2023-05-07T02:05:00;5.13;;;3.20;;
16031;SDS011;8120;48.308;8.914;2023-05-07T02:07:28;5.00;;;3.30;;
16031;SDS011;8120;48.308;8.914;2023-05-07T02:09:56;5.93;;;3.27;;
16031;SDS011;8120;48.308;8.914;2023-05-07T02:12:25;3.70;;;3.00;;
16031;SDS011;8120;48.308;8.914;2023-05-07T02:14:53;5.27;;;3.10;;
16031;SDS011;8120;48.308;8.914;2023-05-07T02:17:21;4.63;;;2.73;;
16031;SDS011;8120;48.308;8.914;2023-05-07T02:19:49;5.10;;;3.20;;
16031;SDS011;8120;48.308;8.914;2023-05-07T02:22:16;6.43;;;3.50;;
16031;SDS011;8120;48.308;8.914;2023-05-07T02:24:44;6.00;;;3.57;;
16031;SDS011;8120;48.308;8.914;2023-05-07T02:27:12;4.20;;;3.30;;
16031;SDS011;8120;48.308;8.914;2023-05-07T02:29:41;4.87;;;3.30;;
16031;SDS011;8120;48.308;8.914;2023-05-07T02:32:09;4.83;;;3.13;;
16031;SDS011;8120;48.308;8.914;2023-05-07T02:34:37;4.27;;;2.93;;
16031;SDS011;8120;48.308;8.914;2023-05-07T02:37:05;7.10;;;3.37;;
16031;SDS011;8120;48.308;8.914;2023-05-07T02:39:33;6.10;;;3.83;;
16031;SDS011;8120;48.308;8.914;2023-05-07T02:42:01;5.77;;;4.00;;
16031;SDS011;8120;48.308;8.914;2023-05-07T02:44:29;4.73;;;3.73;;
16031;SDS011;8120;48.308;8.914;2023-05-07T02:46:59;4.97;;;3.73;;
16031;SDS011;8120;48.308;8.914;2023-05-07T02:49:27;4.47;;;3.50;;
16031;SDS011;8120;48.308;8.914;2023-05-07T02:51:58;5.43;;;3.43;;
16031;SDS011;8120;48.308;8.914;2023-05-07T02:54:26;5.27;;;3.50;;
16031;SDS011;8120;48.308;8.914;2023-05-07T02:56:54;4.17;;;3.33;;
16031;SDS011;8120;48.308;8.914;2023-05-07T02:59:22;6.17;;;3.83;;
16031;SDS011;8120;48.308;8.914;2023-05-07T03:01:51;5.07;;;3.33;;
16031;SDS011;8120;48.308;8.914;2023-05-07T03:04:20;4.23;;;3.20;;
16031;SDS011;8120;48.308;8.914;2023-05-07T03:06:48;4.13;;;3.03;;
16031;SDS011;8120;48.308;8.914;2023-05-07T03:09:16;5.17;;;2.97;;
16031;SDS011;8120;48.308;8.914;2023-05-07T03:11:44;5.13;;;3.53;;
16031;SDS011;8120;48.308;8.914;2023-05-07T03:14:12;3.83;;;3.13;;
16031;SDS011;8120;48.308;8.914;2023-05-07T03:16:39;4.73;;;3.27;;
16031;SDS011;8120;48.308;8.914;2023-05-07T03:19:07;5.70;;;3.60;;
16031;SDS011;8120;48.308;8.914;2023-05-07T03:21:37;5.87;;;3.70;;
16031;SDS011;8120;48.308;8.914;2023-05-07T03:24:05;5.60;;;3.70;;
16031;SDS011;8120;48.308;8.914;2023-05-07T03:26:37;6.40;;;3.97;;
16031;SDS011;8120;48.308;8.914;2023-05-07T03:29:05;4.83;;;3.57;;
16031;SDS011;8120;48.308;8.914;2023-05-07T03:31:33;4.87;;;3.40;;
16031;SDS011;8120;48.308;8.914;2023-05-07T03:34:01;4.93;;;3.27;;
16031;SDS011;8120;48.308;8.914;2023-05-07T03:36:28;4.33;;;3.67;;
16031;SDS011;8120;48.308;8.914;2023-05-07T03:38:58;6.23;;;3.90;;
16031;SDS011;8120;48.308;8.914;2023-05-07T03:41:25;5.70;;;4.20;;
16031;SDS011;8120;48.308;8.914;2023-05-07T03:43:53;5.30;;;3.90;;
16031;SDS011;8120;48.308;8.914;2023-05-07T03:46:21;5.80;;;4.00;;
16031;SDS011;8120;48.308;8.914;2023-05-07T03:48:52;6.23;;;4.07;;
16031;SDS011;8120;48.308;8.914;2023-05-07T03:51:20;5.30;;;3.80;;
16031;SDS011;8120;48.308;8.914;2023-05-07T03:53:48;6.17;;;3.80;;
16031;SDS011;8120;48.308;8.914;2023-05-07T03:56:17;6.13;;;4.20;;
16031;SDS011;8120;48.308;8.914;2023-05-07T03:58:45;7.20;;;4.10;;
16031;SDS011;8120;48.308;8.914;2023-05-07T04:01:13;5.13;;;3.90;;
16031;SDS011;8120;48.308;8.914;2023-05-07T04:03:41;5.07;;;3.37;;
16031;SDS011;8120;48.308;8.914;2023-05-07T04:06:09;4.77;;;3.83;;
16031;SDS011;8120;48.308;8.914;2023-05-07T04:08:38;4.83;;;3.40;;
16031;SDS011;8120;48.308;8.914;2023-05-07T04:11:06;5.47;;;3.57;;
16031;SDS011;8120;48.308;8.914;2023-05-07T04:13:35;5.83;;;3.77;;
16031;SDS011;8120;48.308;8.914;2023-05-07T04:16:03;4.50;;;3.60;;
16031;SDS011;8120;48.308;8.914;2023-05-07T04:18:32;4.40;;;3.60;;
16031;SDS011;8120;48.308;8.914;2023-05-07T04:21:01;4.73;;;3.30;;
16031;SDS011;8120;48.308;8.914;2023-05-07T04:23:29;4.50;;;3.37;;
16031;SDS011;8120;48.308;8.914;2023-05-07T04:25:57;5.33;;;3.70;;
16031;SDS011;8120;48.308;8.914;2023-05-07T04:28:25;5.77;;;3.93;;
16031;SDS011;8120;48.308;8.914;2023-05-07T04:30:54;5.10;;;3.77;;
16031;SDS011;8120;48.308;8.914;2023-05-07T04:33:22;3.97;;;3.00;;
16031;SDS011;8120;48.308;8.914;2023-05-07T04:35:50;4.57;;;3.10;;
16031;SDS011;8120;48.308;8.914;2023-05-07T04:38:18;6.17;;;2.83;;
16031;SDS011;8120;48.308;8.914;2023-05-07T04:40:46;3.77;;;2.60;;
16031;SDS011;8120;48.308;8.914;2023-05-07T04:43:14;3.90;;;2.60;;
16031;SDS011;8120;48.308;8.914;2023-05-07T04:45:42;4.97;;;2.50;;
16031;SDS011;8120;48.308;8.914;2023-05-07T04:48:11;3.77;;;2.73;;
16031;SDS011;8120;48.308;8.914;2023-05-07T04:50:40;3.27;;;2.43;;
16031;SDS011;8120;48.308;8.914;2023-05-07T04:53:08;4.57;;;2.40;;
16031;SDS011;8120;48.308;8.914;2023-05-07T04:55:37;4.90;;;3.03;;
16031;SDS011;8120;48.308;8.914;2023-05-07T04:58:04;2.60;;;2.37;;
16031;SDS011;8120;48.308;8.914;2023-05-07T05:00:33;4.17;;;2.37;;
16031;SDS011;8120;48.308;8.914;2023-05-07T05:03:00;4.97;;;2.63;;
16031;SDS011;8120;48.308;8.914;2023-05-07T05:05:30;3.20;;;2.30;;
16031;SDS011;8120;48.308;8.914;2023-05-07T05:07:58;4.70;;;2.50;;
16031;SDS011;8120;48.308;8.914;2023-05-07T05:10:26;4.47;;;2.53;;
16031;SDS011;8120;48.308;8.914;2023-05-07T05:12:54;2.87;;;2.37;;
16031;SDS011;8120;48.308;8.914;2023-05-07T05:15:22;3.57;;;2.90;;
16031;SDS011;8120;48.308;8.914;2023-05-07T05:17:50;2.93;;;2.50;;
16031;SDS011;8120;48.308;8.914;2023-05-07T05:20:18;4.80;;;2.70;;
16031;SDS011;8120;48.308;8.914;2023-05-07T05:22:47;4.57;;;2.93;;
16031;SDS011;8120;48.308;8.914;2023-05-07T05:25:15;3.43;;;2.77;;
16031;SDS011;8120;48.308;8.914;2023-05-07T05:27:43;4.17;;;2.70;;
16031;SDS011;8120;48.308;8.914;2023-05-07T05:30:11;2.83;;;2.40;;
16031;SDS011;8120;48.308;8.914;2023-05-07T05:32:39;2.90;;;2.20;;
16031;SDS011;8120;48.308;8.914;2023-05-07T05:35:08;3.93;;;2.97;;
16031;SDS011;8120;48.308;8.914;2023-05-07T05:37:36;3.40;;;2.80;;
16031;SDS011;8120;48.308;8.914;2023-05-07T05:40:05;3.97;;;2.60;;
16031;SDS011;8120;48.308;8.914;2023-05-07T05:42:35;4.00;;;2.30;;
16031;SDS011;8120;48.308;8.914;2023-05-07T05:45:03;4.43;;;2.50;;
16031;SDS011;8120;48.308;8.914;2023-05-07T05:47:31;3.60;;;2.77;;
16031;SDS011;8120;48.308;8.914;2023-05-07T05:49:59;4.27;;;2.50;;
16031;SDS011;8120;48.308;8.914;2023-05-07T05:52:28;2.70;;;2.50;;
16031;SDS011;8120;48.308;8.914;2023-05-07T05:54:56;4.13;;;2.73;;
16031;SDS011;8120;48.308;8.914;2023-05-07T05:57:25;4.60;;;2.50;;
16031;SDS011;8120;48.308;8.914;2023-05-07T05:59:54;2.60;;;2.40;;
16031;SDS011;8120;48.308;8.914;2023-05-07T06:02:22;4.60;;;2.77;;
16031;SDS011;8120;48.308;8.914;2023-05-07T06:04:50;3.27;;;2.50;;
16031;SDS011;8120;48.308;8.914;2023-05-07T06:07:18;3.60;;;2.53;;
16031;SDS011;8120;48.308;8.914;2023-05-07T06:09:45;3.93;;;3.10;;
16031;SDS011;8120;48.308;8.914;2023-05-07T06:12:13;4.47;;;2.77;;
16031;SDS011;8120;48.308;8.914;2023-05-07T06:14:43;3.60;;;2.70;;
16031;SDS011;8120;48.308;8.914;2023-05-07T06:17:11;4.00;;;3.10;;
16031;SDS011;8120;48.308;8.914;2023-05-07T06:19:39;3.77;;;2.80;;
16031;SDS011;8120;48.308;8.914;2023-05-07T06:22:07;3.40;;;2.70;;
16031;SDS011;8120;48.308;8.914;2023-05-07T06:24:35;3.90;;;2.90;;
16031;SDS011;8120;48.308;8.914;2023-05-07T06:27:03;4.03;;;3.17;;
16031;SDS011;8120;48.308;8.914;2023-05-07T06:29:30;3.83;;;2.90;;
16031;SDS011;8120;48.308;8.914;2023-05-07T06:32:07;4.97;;;3.37;;
16031;SDS011;8120;48.308;8.914;2023-05-07T06:34:35;4.63;;;3.23;;
16031;SDS011;8120;48.308;8.914;2023-05-07T06:37:03;4.00;;;3.10;;
16031;SDS011;8120;48.308;8.914;2023-05-07T06:39:31;5.03;;;3.40;;
16031;SDS011;8120;48.308;8.914;2023-05-07T06:41:59;4.73;;;3.17;;
16031;SDS011;8120;48.308;8.914;2023-05-07T06:44:27;3.23;;;2.93;;
16031;SDS011;8120;48.308;8.914;2023-05-07T06:46:56;5.37;;;3.43;;
16031;SDS011;8120;48.308;8.914;2023-05-07T06:49:25;5.13;;;3.63;;
16031;SDS011;8120;48.308;8.914;2023-05-07T06:51:53;5.37;;;3.33;;
16031;SDS011;8120;48.308;8.914;2023-05-07T06:54:22;5.63;;;3.57;;
16031;SDS011;8120;48.308;8.914;2023-05-07T06:56:50;5.17;;;3.23;;
16031;SDS011;8120;48.308;8.914;2023-05-07T06:59:18;4.83;;;3.33;;
16031;SDS011;8120;48.308;8.914;2023-05-07T07:01:46;4.50;;;3.23;;
16031;SDS011;8120;48.308;8.914;2023-05-07T07:04:14;5.13;;;3.57;;
16031;SDS011;8120;48.308;8.914;2023-05-07T07:06:43;5.67;;;3.20;;
16031;SDS011;8120;48.308;8.914;2023-05-07T07:09:12;5.83;;;3.33;;
16031;SDS011;8120;48.308;8.914;2023-05-07T07:11:40;5.53;;;3.47;;
16031;SDS011;8120;48.308;8.914;2023-05-07T07:14:08;6.77;;;3.27;;
16031;SDS011;8120;48.308;8.914;2023-05-07T07:16:36;4.87;;;3.47;;
16031;SDS011;8120;48.308;8.914;2023-05-07T07:19:04;6.13;;;3.20;;
16031;SDS011;8120;48.308;8.914;2023-05-07T07:21:32;4.30;;;3.50;;
16031;SDS011;8120;48.308;8.914;2023-05-07T07:24:01;4.70;;;3.40;;
16031;SDS011;8120;48.308;8.914;2023-05-07T07:26:29;3.90;;;3.10;;
16031;SDS011;8120;48.308;8.914;2023-05-07T07:28:57;4.50;;;3.20;;
16031;SDS011;8120;48.308;8.914;2023-05-07T07:31:25;4.17;;;3.60;;
16031;SDS011;8120;48.308;8.914;2023-05-07T07:33:53;6.50;;;3.60;;
16031;SDS011;8120;48.308;8.914;2023-05-07T07:36:21;6.87;;;3.43;;
16031;SDS011;8120;48.308;8.914;2023-05-07T07:39:01;5.93;;;2.90;;
16031;SDS011;8120;48.308;8.914;2023-05-07T07:41:29;4.67;;;3.23;;
16031;SDS011;8120;48.308;8.914;2023-05-07T07:43:57;3.93;;;3.00;;
16031;SDS011;8120;48.308;8.914;2023-05-07T07:46:25;4.07;;;3.10;;
16031;SDS011;8120;48.308;8.914;2023-05-07T07:48:53;5.47;;;3.63;;
16031;SDS011;8120;48.308;8.914;2023-05-07T07:51:21;3.90;;;3.17;;
16031;SDS011;8120;48.308;8.914;2023-05-07T07:53:49;4.80;;;3.00;;
16031;SDS011;8120;48.308;8.914;2023-05-07T07:56:18;4.55;;;3.22;;
16031;SDS011;8120;48.308;8.914;2023-05-07T07:58:46;4.18;;;3.42;;
16031;SDS011;8120;48.308;8.914;2023-05-07T08:01:14;5.57;;;3.70;;
16031;SDS011;8120;48.308;8.914;2023-05-07T08:03:43;5.22;;;3.78;;
16031;SDS011;8120;48.308;8.914;2023-05-07T08:06:11;5.13;;;3.50;;
16031;SDS011;8120;48.308;8.914;2023-05-07T08:08:40;5.00;;;3.40;;
16031;SDS011;8120;48.308;8.914;2023-05-07T08:11:08;5.93;;;3.53;;
16031;SDS011;8120;48.308;8.914;2023-05-07T08:13:37;6.55;;;4.38;;
16031;SDS011;8120;48.308;8.914;2023-05-07T08:16:05;4.07;;;3.30;;
16031;SDS011;8120;48.308;8.914;2023-05-07T08:18:33;3.92;;;3.28;;
16031;SDS011;8120;48.308;8.914;2023-05-07T08:21:01;5.35;;;3.40;;
16031;SDS011;8120;48.308;8.914;2023-05-07T08:23:29;4.13;;;3.20;;
16031;SDS011;8120;48.308;8.914;2023-05-07T08:25:57;5.72;;;3.35;;
16031;SDS011;8120;48.308;8.914;2023-05-07T08:28:25;5.25;;;3.38;;
16031;SDS011;8120;48.308;8.914;2023-05-07T08:30:55;4.43;;;3.10;;
16031;SDS011;8120;48.308;8.914;2023-05-07T08:33:26;4.57;;;3.47;;
16031;SDS011;8120;48.308;8.914;2023-05-07T08:35:53;4.82;;;2.63;;
16031;SDS011;8120;48.308;8.914;2023-05-07T08:38:21;4.57;;;3.30;;
16031;SDS011;8120;48.308;8.914;2023-05-07T08:40:49;5.47;;;3.20;;
16031;SDS011;8120;48.308;8.914;2023-05-07T08:43:17;3.33;;;2.60;;
16031;SDS011;8120;48.308;8.914;2023-05-07T08:45:46;3.70;;;3.30;;
16031;SDS011;8120;48.308;8.914;2023-05-07T08:48:22;4.57;;;2.97;;
16031;SDS011;8120;48.308;8.914;2023-05-07T08:50:52;3.28;;;2.72;;
16031;SDS011;8120;48.308;8.914;2023-05-07T08:53:20;4.35;;;2.53;;
16031;SDS011;8120;48.308;8.914;2023-05-07T08:55:48;4.43;;;2.83;;
16031;SDS011;8120;48.308;8.914;2023-05-07T08:58:16;4.82;;;3.00;;
16031;SDS011;8120;48.308;8.914;2023-05-07T09:00:44;4.13;;;2.80;;
16031;SDS011;8120;48.308;8.914;2023-05-07T09:03:14;4.55;;;2.72;;
16031;SDS011;8120;48.308;8.914;2023-05-07T09:05:43;4.45;;;2.90;;
16031;SDS011;8120;48.308;8.914;2023-05-07T09:08:14;4.90;;;2.92;;
16031;SDS011;8120;48.308;8.914;2023-05-07T09:10:42;5.13;;;3.00;;
16031;SDS011;8120;48.308;8.914;2023-05-07T09:13:11;3.17;;;2.70;;
16031;SDS011;8120;48.308;8.914;2023-05-07T09:15:41;3.00;;;2.60;;
16031;SDS011;8120;48.308;8.914;2023-05-07T09:18:08;4.85;;;3.35;;
16031;SDS011;8120;48.308;8.914;2023-05-07T09:20:37;4.60;;;2.92;;
16031;SDS011;8120;48.308;8.914;2023-05-07T09:23:06;3.70;;;2.88;;
16031;SDS011;8120;48.308;8.914;2023-05-07T09:25:35;5.55;;;2.78;;
16031;SDS011;8120;48.308;8.914;2023-05-07T09:28:04;4.43;;;3.08;;
16031;SDS011;8120;48.308;8.914;2023-05-07T09:30:33;4.95;;;2.83;;
16031;SDS011;8120;48.308;8.914;2023-05-07T09:33:02;5.03;;;3.17;;
16031;SDS011;8120;48.308;8.914;2023-05-07T09:35:31;3.78;;;3.03;;
16031;SDS011;8120;48.308;8.914;2023-05-07T09:37:59;3.20;;;2.90;;
16031;SDS011;8120;48.308;8.914;2023-05-07T09:40:31;4.85;;;3.17;;
16031;SDS011;8120;48.308;8.914;2023-05-07T09:43:08;3.63;;;2.75;;
16031;SDS011;8120;48.308;8.914;2023-05-07T09:45:37;6.27;;;3.40;;
16031;SDS011;8120;48.308;8.914;2023-05-07T09:48:06;4.70;;;2.90;;
16031;SDS011;8120;48.308;8.914;2023-05-07T09:50:35;4.10;;;2.75;;
16031;SDS011;8120;48.308;8.914;2023-05-07T09:53:07;4.15;;;3.05;;
16031;SDS011;8120;48.308;8.914;2023-05-07T09:55:39;4.03;;;2.53;;
16031;SDS011;8120;48.308;8.914;2023-05-07T09:58:07;3.97;;;2.90;;
16031;SDS011;8120;48.308;8.914;2023-05-07T10:00:36;3.43;;;3.03;;
16031;SDS011;8120;48.308;8.914;2023-05-07T10:03:07;4.68;;;2.97;;
16031;SDS011;8120;48.308;8.914;2023-05-07T10:05:36;3.58;;;2.95;;
16031;SDS011;8120;48.308;8.914;2023-05-07T10:08:05;4.20;;;2.88;;
16031;SDS011;8120;48.308;8.914;2023-05-07T10:10:34;4.65;;;3.22;;
16031;SDS011;8120;48.308;8.914;2023-05-07T10:13:04;3.70;;;2.80;;
16031;SDS011;8120;48.308;8.914;2023-05-07T10:15:36;5.00;;;3.00;;
16031;SDS011;8120;48.308;8.914;2023-05-07T10:18:05;5.35;;;2.85;;
16031;SDS011;8120;48.308;8.914;2023-05-07T10:20:34;6.80;;;3.28;;
16031;SDS011;8120;48.308;8.914;2023-05-07T10:23:04;5.82;;;2.95;;
16031;SDS011;8120;48.308;8.914;2023-05-07T10:25:32;5.38;;;2.97;;
16031;SDS011;8120;48.308;8.914;2023-05-07T10:28:03;3.28;;;2.75;;
16031;SDS011;8120;48.308;8.914;2023-05-07T10:30:37;4.95;;;2.60;;
16031;SDS011;8120;48.308;8.914;2023-05-07T10:33:12;6.40;;;3.00;;
16031;SDS011;8120;48.308;8.914;2023-05-07T10:35:44;5.32;;;2.90;;
16031;SDS011;8120;48.308;8.914;2023-05-07T10:38:13;8.45;;;3.10;;
16031;SDS011;8120;48.308;8.914;2023-05-07T10:40:41;4.32;;;2.80;;
16031;SDS011;8120;48.308;8.914;2023-05-07T10:43:14;3.95;;;2.92;;
16031;SDS011;8120;48.308;8.914;2023-05-07T10:45:42;4.20;;;3.53;;
16031;SDS011;8120;48.308;8.914;2023-05-07T10:48:11;3.73;;;3.00;;
16031;SDS011;8120;48.308;8.914;2023-05-07T10:50:43;4.87;;;3.50;;
16031;SDS011;8120;48.308;8.914;2023-05-07T10:53:20;5.20;;;3.70;;
16031;SDS011;8120;48.308;8.914;2023-05-07T11:02:08;3.57;;;2.20;;
16031;SDS011;8120;48.308;8.914;2023-05-07T11:04:37;2.67;;;2.00;;
16031;SDS011;8120;48.308;8.914;2023-05-07T11:10:06;3.13;;;2.23;;
16031;SDS011;8120;48.308;8.914;2023-05-07T11:12:50;3.43;;;2.33;;
16031;SDS011;8120;48.308;8.914;2023-05-07T11:15:38;3.67;;;2.30;;
16031;SDS011;8120;48.308;8.914;2023-05-07T11:18:09;5.47;;;2.40;;
16031;SDS011;8120;48.308;8.914;2023-05-07T11:20:44;3.93;;;2.63;;
16031;SDS011;8120;48.308;8.914;2023-05-07T11:26:43;3.53;;;2.30;;
16031;SDS011;8120;48.308;8.914;2023-05-07T11:29:14;3.27;;;2.50;;
16031;SDS011;8120;48.308;8.914;2023-05-07T11:31:51;4.17;;;2.30;;
16031;SDS011;8120;48.308;8.914;2023-05-07T11:34:20;2.77;;;2.40;;
16031;SDS011;8120;48.308;8.914;2023-05-07T11:36:49;3.67;;;2.20;;
16031;SDS011;8120;48.308;8.914;2023-05-07T11:39:24;2.63;;;2.00;;
16031;SDS011;8120;48.308;8.914;2023-05-07T11:41:56;4.43;;;2.30;;
16031;SDS011;8120;48.308;8.914;2023-05-07T11:44:24;3.37;;;2.27;;
16031;SDS011;8120;48.308;8.914;2023-05-07T11:46:53;2.90;;;2.20;;
16031;SDS011;8120;48.308;8.914;2023-05-07T11:49:21;3.70;;;2.53;;
16031;SDS011;8120;48.308;8.914;2023-05-07T11:51:52;2.93;;;2.20;;
16031;SDS011;8120;48.308;8.914;2023-05-07T11:54:21;4.27;;;2.37;;
16031;SDS011;8120;48.308;8.914;2023-05-07T11:56:48;3.80;;;2.80;;
16031;SDS011;8120;48.308;8.914;2023-05-07T11:59:17;4.77;;;2.67;;
16031;SDS011;8120;48.308;8.914;2023-05-07T12:01:45;4.60;;;2.70;;
16031;SDS011;8120;48.308;8.914;2023-05-07T12:04:19;3.77;;;2.40;;
16031;SDS011;8120;48.308;8.914;2023-05-07T12:06:48;6.83;;;3.43;;
16031;SDS011;8120;48.308;8.914;2023-05-07T12:09:22;5.93;;;3.40;;
16031;SDS011;8120;48.308;8.914;2023-05-07T12:11:51;11.17;;;6.33;;
16031;SDS011;8120;48.308;8.914;2023-05-07T12:14:19;14.52;;;9.48;;
16031;SDS011;8120;48.308;8.914;2023-05-07T12:16:47;6.82;;;4.90;;
16031;SDS011;8120;48.308;8.914;2023-05-07T12:19:16;9.77;;;6.20;;
16031;SDS011;8120;48.308;8.914;2023-05-07T12:21:45;7.78;;;4.40;;
16031;SDS011;8120;48.308;8.914;2023-05-07T12:24:14;7.40;;;3.85;;
16031;SDS011;8120;48.308;8.914;2023-05-07T12:26:42;6.85;;;4.00;;
16031;SDS011;8120;48.308;8.914;2023-05-07T12:29:10;10.30;;;4.27;;
16031;SDS011;8120;48.308;8.914;2023-05-07T12:31:40;6.30;;;3.47;;
16031;SDS011;8120;48.308;8.914;2023-05-07T12:34:08;10.30;;;4.15;;
16031;SDS011;8120;48.308;8.914;2023-05-07T12:36:38;7.95;;;3.50;;
16031;SDS011;8120;48.308;8.914;2023-05-07T12:39:08;6.00;;;3.30;;
16031;SDS011;8120;48.308;8.914;2023-05-07T12:41:51;10.52;;;4.50;;
16031;SDS011;8120;48.308;8.914;2023-05-07T12:44:21;7.20;;;3.78;;
16031;SDS011;8120;48.308;8.914;2023-05-07T12:46:50;9.43;;;3.73;;
16031;SDS011;8120;48.308;8.914;2023-05-07T12:49:18;9.83;;;3.87;;
16031;SDS011;8120;48.308;8.914;2023-05-07T12:51:50;4.83;;;3.13;;
16031;SDS011;8120;48.308;8.914;2023-05-07T12:54:28;6.80;;;3.40;;
16031;SDS011;8120;48.308;8.914;2023-05-07T12:57:01;7.23;;;3.50;;
16031;SDS011;8120;48.308;8.914;2023-05-07T12:59:33;5.87;;;3.17;;
16031;SDS011;8120;48.308;8.914;2023-05-07T13:02:02;4.13;;;3.03;;
16031;SDS011;8120;48.308;8.914;2023-05-07T13:04:30;4.80;;;2.80;;
16031;SDS011;8120;48.308;8.914;2023-05-07T13:06:58;4.97;;;2.97;;
16031;SDS011;8120;48.308;8.914;2023-05-07T13:09:27;5.27;;;3.07;;
16031;SDS011;8120;48.308;8.914;2023-05-07T13:11:56;5.53;;;3.10;;
16031;SDS011;8120;48.308;8.914;2023-05-07T13:14:26;5.23;;;3.30;;
16031;SDS011;8120;48.308;8.914;2023-05-07T13:16:54;6.73;;;3.53;;
16031;SDS011;8120;48.308;8.914;2023-05-07T13:19:21;7.53;;;4.20;;
16031;SDS011;8120;48.308;8.914;2023-05-07T13:21:49;6.17;;;4.13;;
16031;SDS011;8120;48.308;8.914;2023-05-07T13:24:17;6.93;;;5.10;;
16031;SDS011;8120;48.308;8.914;2023-05-07T13:26:47;6.57;;;4.27;;
16031;SDS011;8120;48.308;8.914;2023-05-07T13:29:15;8.20;;;3.90;;
16031;SDS011;8120;48.308;8.914;2023-05-07T13:31:43;7.70;;;3.77;;
16031;SDS011;8120;48.308;8.914;2023-05-07T13:34:13;5.27;;;3.67;;
16031;SDS011;8120;48.308;8.914;2023-05-07T13:36:41;6.40;;;3.93;;
16031;SDS011;8120;48.308;8.914;2023-05-07T13:39:09;10.23;;;4.90;;
16031;SDS011;8120;48.308;8.914;2023-05-07T13:41:37;8.57;;;4.10;;
16031;SDS011;8120;48.308;8.914;2023-05-07T13:44:06;6.33;;;3.00;;
16031;SDS011;8120;48.308;8.914;2023-05-07T13:46:34;6.63;;;3.30;;
16031;SDS011;8120;48.308;8.914;2023-05-07T13:49:02;5.53;;;3.30;;
16031;SDS011;8120;48.308;8.914;2023-05-07T13:51:30;4.90;;;3.10;;
16031;SDS011;8120;48.308;8.914;2023-05-07T13:53:58;6.60;;;3.57;;
16031;SDS011;8120;48.308;8.914;2023-05-07T13:56:25;7.80;;;3.70;;
16031;SDS011;8120;48.308;8.914;2023-05-07T13:58:54;4.57;;;3.13;;
16031;SDS011;8120;48.308;8.914;2023-05-07T14:01:27;4.70;;;3.03;;
16031;SDS011;8120;48.308;8.914;2023-05-07T14:03:56;4.50;;;3.37;;
16031;SDS011;8120;48.308;8.914;2023-05-07T14:06:25;5.07;;;3.10;;
16031;SDS011;8120;48.308;8.914;2023-05-07T14:08:53;5.87;;;3.30;;
16031;SDS011;8120;48.308;8.914;2023-05-07T14:11:24;7.63;;;3.17;;
16031;SDS011;8120;48.308;8.914;2023-05-07T14:13:52;7.30;;;4.63;;
16031;SDS011;8120;48.308;8.914;2023-05-07T14:16:19;6.43;;;4.27;;
16031;SDS011;8120;48.308;8.914;2023-05-07T14:18:49;4.60;;;3.47;;
16031;SDS011;8120;48.308;8.914;2023-05-07T14:21:17;3.00;;;2.50;;
16031;SDS011;8120;48.308;8.914;2023-05-07T14:23:45;4.43;;;2.93;;
16031;SDS011;8120;48.308;8.914;2023-05-07T14:26:13;4.77;;;2.83;;
16031;SDS011;8120;48.308;8.914;2023-05-07T14:28:41;5.63;;;2.87;;
16031;SDS011;8120;48.308;8.914;2023-05-07T14:31:12;3.93;;;3.00;;
16031;SDS011;8120;48.308;8.914;2023-05-07T14:33:40;4.10;;;2.70;;
16031;SDS011;8120;48.308;8.914;2023-05-07T14:36:09;5.03;;;3.23;;
16031;SDS011;8120;48.308;8.914;2023-05-07T14:38:37;3.77;;;2.70;;
16031;SDS011;8120;48.308;8.914;2023-05-07T14:41:05;4.47;;;3.20;;
16031;SDS011;8120;48.308;8.914;2023-05-07T14:43:33;7.83;;;3.90;;
16031;SDS011;8120;48.308;8.914;2023-05-07T14:46:01;5.77;;;3.07;;
16031;SDS011;8120;48.308;8.914;2023-05-07T14:48:29;4.20;;;2.87;;
16031;SDS011;8120;48.308;8.914;2023-05-07T14:50:57;4.80;;;2.30;;
16031;SDS011;8120;48.308;8.914;2023-05-07T14:53:26;3.97;;;2.30;;
16031;SDS011;8120;48.308;8.914;2023-05-07T14:55:54;3.93;;;2.57;;
16031;SDS011;8120;48.308;8.914;2023-05-07T14:58:22;3.20;;;2.23;;
16031;SDS011;8120;48.308;8.914;2023-05-07T15:00:50;2.77;;;2.20;;
16031;SDS011;8120;48.308;8.914;2023-05-07T15:03:18;4.80;;;2.80;;
16031;SDS011;8120;48.308;8.914;2023-05-07T15:05:46;4.47;;;2.37;;
16031;SDS011;8120;48.308;8.914;2023-05-07T15:08:16;3.60;;;2.57;;
16031;SDS011;8120;48.308;8.914;2023-05-07T15:10:46;5.37;;;3.00;;
16031;SDS011;8120;48.308;8.914;2023-05-07T15:13:14;4.80;;;3.13;;
16031;SDS011;8120;48.308;8.914;2023-05-07T15:15:42;3.77;;;2.97;;
16031;SDS011;8120;48.308;8.914;2023-05-07T15:18:12;3.73;;;2.73;;
16031;SDS011;8120;48.308;8.914;2023-05-07T15:20:40;4.50;;;2.73;;
16031;SDS011;8120;48.308;8.914;2023-05-07T15:23:09;4.77;;;3.00;;